sensor_id;sensor_type;location;lat;lon;timestamp;P1;durP1;ratioP1;P2;durP2;ratioP2
29030;SDS011;16122;50.236;11.734;2024-03-22T00:00:43;1.60;;;1.50;;
29030;SDS011;16122;50.236;11.734;2024-03-22T00:03:09;1.47;;;1.37;;
29030;SDS011;16122;50.236;11.734;2024-03-22T00:05:35;2.00;;;1.80;;
29030;SDS011;16122;50.236;11.734;2024-03-22T00:08:01;1.77;;;1.67;;
29030;SDS011;16122;50.236;11.734;2024-03-22T00:10:27;1.80;;;1.70;;
29030;SDS011;16122;50.236;11.734;2024-03-22T00:12:53;1.70;;;1.60;;
29030;SDS011;16122;50.236;11.734;2024-03-22T00:15:18;1.97;;;1.87;;
29030;SDS011;16122;50.236;11.734;2024-03-22T00:17:44;1.53;;;1.43;;
29030;SDS011;16122;50.236;11.734;2024-03-22T00:20:10;1.80;;;1.70;;
29030;SDS011;16122;50.236;11.734;2024-03-22T00:22:36;1.53;;;1.40;;
29030;SDS011;16122;50.236;11.734;2024-03-22T00:25:02;1.67;;;1.57;;
29030;SDS011;16122;50.236;11.734;2024-03-22T00:27:29;1.90;;;1.43;;
29030;SDS011;16122;50.236;11.734;2024-03-22T00:29:54;1.47;;;1.37;;
29030;SDS011;16122;50.236;11.734;2024-03-22T00:32:20;1.80;;;1.33;;
29030;SDS011;16122;50.236;11.734;2024-03-22T00:34:46;1.80;;;1.70;;
29030;SDS011;16122;50.236;11.734;2024-03-22T00:37:12;4.80;;;1.70;;
29030;SDS011;16122;50.236;11.734;2024-03-22T00:39:37;1.50;;;1.40;;
29030;SDS011;16122;50.236;11.734;2024-03-22T00:42:03;1.20;;;1.10;;
29030;SDS011;16122;50.236;11.734;2024-03-22T00:44:29;1.87;;;1.60;;
29030;SDS011;16122;50.236;11.734;2024-03-22T00:46:55;1.40;;;1.30;;
29030;SDS011;16122;50.236;11.734;2024-03-22T00:49:21;1.97;;;1.73;;
29030;SDS011;16122;50.236;11.734;2024-03-22T00:51:47;2.73;;;1.60;;
29030;SDS011;16122;50.236;11.734;2024-03-22T00:54:13;1.40;;;1.30;;
29030;SDS011;16122;50.236;11.734;2024-03-22T00:56:39;1.83;;;1.20;;
29030;SDS011;16122;50.236;11.734;2024-03-22T00:59:05;2.40;;;1.43;;
29030;SDS011;16122;50.236;11.734;2024-03-22T01:01:31;1.50;;;1.27;;
29030;SDS011;16122;50.236;11.734;2024-03-22T01:03:57;1.50;;;1.40;;
29030;SDS011;16122;50.236;11.734;2024-03-22T01:06:23;1.50;;;1.40;;
29030;SDS011;16122;50.236;11.734;2024-03-22T01:08:52;1.40;;;1.30;;
29030;SDS011;16122;50.236;11.734;2024-03-22T01:11:18;1.33;;;1.27;;
29030;SDS011;16122;50.236;11.734;2024-03-22T01:13:44;1.50;;;1.40;;
29030;SDS011;16122;50.236;11.734;2024-03-22T01:16:10;1.60;;;1.43;;
29030;SDS011;16122;50.236;11.734;2024-03-22T01:18:36;1.33;;;1.23;;
29030;SDS011;16122;50.236;11.734;2024-03-22T01:21:02;1.87;;;1.60;;
29030;SDS011;16122;50.236;11.734;2024-03-22T01:23:28;1.60;;;1.50;;
29030;SDS011;16122;50.236;11.734;2024-03-22T01:25:54;2.53;;;1.70;;
29030;SDS011;16122;50.236;11.734;2024-03-22T01:28:19;1.50;;;1.30;;
29030;SDS011;16122;50.236;11.734;2024-03-22T01:30:45;1.47;;;1.37;;
29030;SDS011;16122;50.236;11.734;2024-03-22T01:33:11;1.50;;;1.40;;
29030;SDS011;16122;50.236;11.734;2024-03-22T01:35:37;1.40;;;1.30;;
29030;SDS011;16122;50.236;11.734;2024-03-22T01:38:03;1.60;;;1.50;;
29030;SDS011;16122;50.236;11.734;2024-03-22T01:40:28;1.67;;;1.40;;
29030;SDS011;16122;50.236;11.734;2024-03-22T01:42:57;1.20;;;1.10;;
29030;SDS011;16122;50.236;11.734;2024-03-22T01:45:25;1.50;;;1.40;;
29030;SDS011;16122;50.236;11.734;2024-03-22T01:47:51;1.43;;;1.10;;
29030;SDS011;16122;50.236;11.734;2024-03-22T01:50:19;2.43;;;1.40;;
29030;SDS011;16122;50.236;11.734;2024-03-22T01:52:46;1.23;;;1.13;;
29030;SDS011;16122;50.236;11.734;2024-03-22T01:55:12;1.53;;;1.03;;
29030;SDS011;16122;50.236;11.734;2024-03-22T01:57:38;1.03;;;0.97;;
29030;SDS011;16122;50.236;11.734;2024-03-22T02:00:05;1.30;;;1.20;;
29030;SDS011;16122;50.236;11.734;2024-03-22T02:02:39;1.30;;;1.20;;
29030;SDS011;16122;50.236;11.734;2024-03-22T02:05:14;1.40;;;1.30;;
29030;SDS011;16122;50.236;11.734;2024-03-22T02:07:44;1.30;;;1.20;;
29030;SDS011;16122;50.236;11.734;2024-03-22T02:10:11;1.40;;;1.30;;
29030;SDS011;16122;50.236;11.734;2024-03-22T02:12:38;1.77;;;1.50;;
29030;SDS011;16122;50.236;11.734;2024-03-22T02:15:04;1.77;;;1.67;;
29030;SDS011;16122;50.236;11.734;2024-03-22T02:17:32;1.70;;;1.43;;
29030;SDS011;16122;50.236;11.734;2024-03-22T02:19:58;1.40;;;1.20;;
29030;SDS011;16122;50.236;11.734;2024-03-22T02:22:25;1.50;;;1.13;;
29030;SDS011;16122;50.236;11.734;2024-03-22T02:24:51;1.27;;;1.17;;
29030;SDS011;16122;50.236;11.734;2024-03-22T02:27:18;1.20;;;1.10;;
29030;SDS011;16122;50.236;11.734;2024-03-22T02:29:43;1.50;;;1.40;;
29030;SDS011;16122;50.236;11.734;2024-03-22T02:32:09;1.60;;;1.50;;
29030;SDS011;16122;50.236;11.734;2024-03-22T02:34:35;1.50;;;1.40;;
29030;SDS011;16122;50.236;11.734;2024-03-22T02:37:01;1.60;;;1.50;;
29030;SDS011;16122;50.236;11.734;2024-03-22T02:39:27;2.57;;;1.50;;
29030;SDS011;16122;50.236;11.734;2024-03-22T02:41:54;1.60;;;1.50;;
29030;SDS011;16122;50.236;11.734;2024-03-22T02:44:20;1.77;;;1.50;;
29030;SDS011;16122;50.236;11.734;2024-03-22T02:46:46;1.33;;;1.23;;
29030;SDS011;16122;50.236;11.734;2024-03-22T02:49:12;1.40;;;1.30;;
29030;SDS011;16122;50.236;11.734;2024-03-22T02:51:38;1.67;;;1.57;;
29030;SDS011;16122;50.236;11.734;2024-03-22T02:54:04;1.40;;;1.30;;
29030;SDS011;16122;50.236;11.734;2024-03-22T02:56:30;2.10;;;1.80;;
29030;SDS011;16122;50.236;11.734;2024-03-22T02:58:55;1.60;;;1.50;;
29030;SDS011;16122;50.236;11.734;2024-03-22T03:01:21;1.73;;;1.63;;
29030;SDS011;16122;50.236;11.734;2024-03-22T03:03:47;1.93;;;1.83;;
29030;SDS011;16122;50.236;11.734;2024-03-22T03:06:13;1.70;;;1.60;;
29030;SDS011;16122;50.236;11.734;2024-03-22T03:08:40;1.67;;;1.57;;
29030;SDS011;16122;50.236;11.734;2024-03-22T03:11:06;1.50;;;1.40;;
29030;SDS011;16122;50.236;11.734;2024-03-22T03:13:31;2.10;;;1.73;;
29030;SDS011;16122;50.236;11.734;2024-03-22T03:15:57;1.90;;;1.60;;
29030;SDS011;16122;50.236;11.734;2024-03-22T03:18:23;1.93;;;1.73;;
29030;SDS011;16122;50.236;11.734;2024-03-22T03:20:49;2.00;;;1.80;;
29030;SDS011;16122;50.236;11.734;2024-03-22T03:23:15;2.10;;;1.97;;
29030;SDS011;16122;50.236;11.734;2024-03-22T03:25:41;1.70;;;1.60;;
29030;SDS011;16122;50.236;11.734;2024-03-22T03:28:06;1.70;;;1.60;;
29030;SDS011;16122;50.236;11.734;2024-03-22T03:30:35;2.47;;;1.90;;
29030;SDS011;16122;50.236;11.734;2024-03-22T03:33:01;2.27;;;1.90;;
29030;SDS011;16122;50.236;11.734;2024-03-22T03:35:27;2.10;;;1.60;;
29030;SDS011;16122;50.236;11.734;2024-03-22T03:37:54;2.07;;;1.90;;
29030;SDS011;16122;50.236;11.734;2024-03-22T03:40:20;1.60;;;1.50;;
29030;SDS011;16122;50.236;11.734;2024-03-22T03:42:47;1.60;;;1.50;;
29030;SDS011;16122;50.236;11.734;2024-03-22T03:45:13;1.40;;;1.30;;
29030;SDS011;16122;50.236;11.734;2024-03-22T03:47:38;1.90;;;1.80;;
29030;SDS011;16122;50.236;11.734;2024-03-22T03:50:05;1.47;;;1.37;;
29030;SDS011;16122;50.236;11.734;2024-03-22T03:52:31;1.80;;;1.20;;
29030;SDS011;16122;50.236;11.734;2024-03-22T03:54:58;1.33;;;1.23;;
29030;SDS011;16122;50.236;11.734;2024-03-22T03:57:24;1.70;;;1.60;;
29030;SDS011;16122;50.236;11.734;2024-03-22T03:59:50;1.70;;;1.60;;
29030;SDS011;16122;50.236;11.734;2024-03-22T04:02:15;1.50;;;1.40;;
29030;SDS011;16122;50.236;11.734;2024-03-22T04:04:41;2.13;;;1.30;;
29030;SDS011;16122;50.236;11.734;2024-03-22T04:07:07;1.93;;;1.50;;
29030;SDS011;16122;50.236;11.734;2024-03-22T04:09:33;1.40;;;1.30;;
29030;SDS011;16122;50.236;11.734;2024-03-22T04:11:59;1.60;;;1.50;;
29030;SDS011;16122;50.236;11.734;2024-03-22T04:14:25;1.57;;;1.47;;
29030;SDS011;16122;50.236;11.734;2024-03-22T04:16:51;1.67;;;1.57;;
29030;SDS011;16122;50.236;11.734;2024-03-22T04:19:19;1.60;;;1.50;;
29030;SDS011;16122;50.236;11.734;2024-03-22T04:21:46;1.30;;;1.10;;
29030;SDS011;16122;50.236;11.734;2024-03-22T04:24:12;1.30;;;1.20;;
29030;SDS011;16122;50.236;11.734;2024-03-22T04:26:38;1.60;;;1.50;;
29030;SDS011;16122;50.236;11.734;2024-03-22T04:29:03;1.40;;;1.30;;
29030;SDS011;16122;50.236;11.734;2024-03-22T04:31:29;1.37;;;1.27;;
29030;SDS011;16122;50.236;11.734;2024-03-22T04:33:55;1.77;;;1.67;;
29030;SDS011;16122;50.236;11.734;2024-03-22T04:36:21;1.20;;;1.10;;
29030;SDS011;16122;50.236;11.734;2024-03-22T04:38:47;1.40;;;1.30;;
29030;SDS011;16122;50.236;11.734;2024-03-22T04:41:13;1.53;;;1.43;;
29030;SDS011;16122;50.236;11.734;2024-03-22T04:43:39;1.60;;;1.50;;
29030;SDS011;16122;50.236;11.734;2024-03-22T04:46:05;1.17;;;1.07;;
29030;SDS011;16122;50.236;11.734;2024-03-22T04:48:31;1.93;;;1.73;;
29030;SDS011;16122;50.236;11.734;2024-03-22T04:50:56;1.20;;;1.10;;
29030;SDS011;16122;50.236;11.734;2024-03-22T04:53:22;1.10;;;1.00;;
29030;SDS011;16122;50.236;11.734;2024-03-22T04:55:48;1.70;;;1.60;;
29030;SDS011;16122;50.236;11.734;2024-03-22T04:58:15;1.40;;;1.20;;
29030;SDS011;16122;50.236;11.734;2024-03-22T05:00:43;1.30;;;1.20;;
29030;SDS011;16122;50.236;11.734;2024-03-22T05:03:10;1.30;;;1.20;;
29030;SDS011;16122;50.236;11.734;2024-03-22T05:05:37;1.83;;;1.10;;
29030;SDS011;16122;50.236;11.734;2024-03-22T05:08:03;1.30;;;1.20;;
29030;SDS011;16122;50.236;11.734;2024-03-22T05:10:29;1.23;;;1.13;;
29030;SDS011;16122;50.236;11.734;2024-03-22T05:12:56;1.40;;;1.30;;
29030;SDS011;16122;50.236;11.734;2024-03-22T05:15:22;1.50;;;1.40;;
29030;SDS011;16122;50.236;11.734;2024-03-22T05:17:48;1.20;;;1.10;;
29030;SDS011;16122;50.236;11.734;2024-03-22T05:20:14;1.63;;;1.40;;
29030;SDS011;16122;50.236;11.734;2024-03-22T05:22:41;1.77;;;1.37;;
29030;SDS011;16122;50.236;11.734;2024-03-22T05:25:08;1.10;;;1.00;;
29030;SDS011;16122;50.236;11.734;2024-03-22T05:27:34;1.40;;;1.30;;
29030;SDS011;16122;50.236;11.734;2024-03-22T05:30:01;1.90;;;1.40;;
29030;SDS011;16122;50.236;11.734;2024-03-22T05:32:26;1.60;;;1.20;;
29030;SDS011;16122;50.236;11.734;2024-03-22T05:34:52;1.70;;;1.17;;
29030;SDS011;16122;50.236;11.734;2024-03-22T05:37:18;1.77;;;1.53;;
29030;SDS011;16122;50.236;11.734;2024-03-22T05:39:45;1.70;;;1.60;;
29030;SDS011;16122;50.236;11.734;2024-03-22T05:42:10;1.67;;;1.57;;
29030;SDS011;16122;50.236;11.734;2024-03-22T05:44:36;2.00;;;1.10;;
29030;SDS011;16122;50.236;11.734;2024-03-22T05:47:02;1.57;;;1.47;;
29030;SDS011;16122;50.236;11.734;2024-03-22T05:49:28;1.30;;;1.20;;
29030;SDS011;16122;50.236;11.734;2024-03-22T05:51:54;1.73;;;1.40;;
29030;SDS011;16122;50.236;11.734;2024-03-22T05:54:20;1.40;;;1.30;;
29030;SDS011;16122;50.236;11.734;2024-03-22T05:56:46;1.33;;;1.23;;
29030;SDS011;16122;50.236;11.734;2024-03-22T05:59:12;1.40;;;1.30;;
29030;SDS011;16122;50.236;11.734;2024-03-22T06:01:38;1.23;;;1.10;;
29030;SDS011;16122;50.236;11.734;2024-03-22T06:04:06;2.00;;;1.13;;
29030;SDS011;16122;50.236;11.734;2024-03-22T06:06:33;1.30;;;1.20;;
29030;SDS011;16122;50.236;11.734;2024-03-22T06:09:00;1.70;;;1.50;;
29030;SDS011;16122;50.236;11.734;2024-03-22T06:11:29;2.93;;;1.30;;
29030;SDS011;16122;50.236;11.734;2024-03-22T06:13:55;2.03;;;1.83;;
29030;SDS011;16122;50.236;11.734;2024-03-22T06:16:21;1.27;;;1.17;;
29030;SDS011;16122;50.236;11.734;2024-03-22T06:18:50;1.40;;;1.30;;
29030;SDS011;16122;50.236;11.734;2024-03-22T06:21:16;3.10;;;1.73;;
29030;SDS011;16122;50.236;11.734;2024-03-22T06:23:50;1.57;;;1.07;;
29030;SDS011;16122;50.236;11.734;2024-03-22T06:26:16;1.73;;;1.40;;
29030;SDS011;16122;50.236;11.734;2024-03-22T06:28:42;1.70;;;1.60;;
29030;SDS011;16122;50.236;11.734;2024-03-22T06:31:08;1.23;;;1.13;;
29030;SDS011;16122;50.236;11.734;2024-03-22T06:33:34;1.20;;;1.10;;
29030;SDS011;16122;50.236;11.734;2024-03-22T06:36:00;1.60;;;1.30;;
29030;SDS011;16122;50.236;11.734;2024-03-22T06:38:26;1.93;;;1.50;;
29030;SDS011;16122;50.236;11.734;2024-03-22T06:40:51;1.43;;;1.33;;
29030;SDS011;16122;50.236;11.734;2024-03-22T06:43:17;1.57;;;1.47;;
29030;SDS011;16122;50.236;11.734;2024-03-22T06:45:44;1.97;;;1.30;;
29030;SDS011;16122;50.236;11.734;2024-03-22T06:48:09;1.50;;;1.30;;
29030;SDS011;16122;50.236;11.734;2024-03-22T06:50:35;4.03;;;1.53;;
29030;SDS011;16122;50.236;11.734;2024-03-22T06:53:01;1.77;;;1.67;;
29030;SDS011;16122;50.236;11.734;2024-03-22T06:55:27;2.60;;;2.27;;
29030;SDS011;16122;50.236;11.734;2024-03-22T06:57:52;1.70;;;1.60;;
29030;SDS011;16122;50.236;11.734;2024-03-22T07:00:18;2.47;;;1.80;;
29030;SDS011;16122;50.236;11.734;2024-03-22T07:02:44;3.07;;;1.77;;
29030;SDS011;16122;50.236;11.734;2024-03-22T07:05:10;2.40;;;2.20;;
29030;SDS011;16122;50.236;11.734;2024-03-22T07:07:36;2.17;;;1.97;;
29030;SDS011;16122;50.236;11.734;2024-03-22T07:10:03;3.23;;;2.07;;
29030;SDS011;16122;50.236;11.734;2024-03-22T07:12:32;2.57;;;2.37;;
29030;SDS011;16122;50.236;11.734;2024-03-22T07:15:01;3.00;;;2.30;;
29030;SDS011;16122;50.236;11.734;2024-03-22T07:17:28;2.63;;;2.40;;
29030;SDS011;16122;50.236;11.734;2024-03-22T07:19:54;2.60;;;2.10;;
29030;SDS011;16122;50.236;11.734;2024-03-22T07:22:21;2.40;;;1.90;;
29030;SDS011;16122;50.236;11.734;2024-03-22T07:24:47;3.13;;;2.10;;
29030;SDS011;16122;50.236;11.734;2024-03-22T07:27:14;2.27;;;1.97;;
29030;SDS011;16122;50.236;11.734;2024-03-22T07:29:40;2.63;;;2.37;;
29030;SDS011;16122;50.236;11.734;2024-03-22T07:32:06;3.10;;;2.07;;
29030;SDS011;16122;50.236;11.734;2024-03-22T07:34:32;2.60;;;2.40;;
29030;SDS011;16122;50.236;11.734;2024-03-22T07:36:58;2.87;;;2.67;;
29030;SDS011;16122;50.236;11.734;2024-03-22T07:39:24;3.57;;;2.40;;
29030;SDS011;16122;50.236;11.734;2024-03-22T07:41:50;3.17;;;2.40;;
29030;SDS011;16122;50.236;11.734;2024-03-22T07:44:16;2.70;;;2.07;;
29030;SDS011;16122;50.236;11.734;2024-03-22T07:46:43;2.47;;;2.27;;
29030;SDS011;16122;50.236;11.734;2024-03-22T07:49:10;3.60;;;2.53;;
29030;SDS011;16122;50.236;11.734;2024-03-22T07:51:37;3.17;;;1.77;;
29030;SDS011;16122;50.236;11.734;2024-03-22T07:54:02;3.00;;;2.10;;
29030;SDS011;16122;50.236;11.734;2024-03-22T07:56:28;2.67;;;2.23;;
29030;SDS011;16122;50.236;11.734;2024-03-22T07:58:54;2.17;;;1.97;;
29030;SDS011;16122;50.236;11.734;2024-03-22T08:01:21;5.30;;;3.07;;
29030;SDS011;16122;50.236;11.734;2024-03-22T08:53:14;8.03;;;2.77;;
29030;SDS011;16122;50.236;11.734;2024-03-22T08:55:49;3.63;;;2.50;;
29030;SDS011;16122;50.236;11.734;2024-03-22T08:58:14;2.70;;;2.50;;
29030;SDS011;16122;50.236;11.734;2024-03-22T09:00:42;3.63;;;2.60;;
29030;SDS011;16122;50.236;11.734;2024-03-22T09:03:08;2.50;;;2.30;;
29030;SDS011;16122;50.236;11.734;2024-03-22T09:05:34;2.97;;;2.50;;
29030;SDS011;16122;50.236;11.734;2024-03-22T09:08:00;5.70;;;2.87;;
29030;SDS011;16122;50.236;11.734;2024-03-22T09:10:26;3.60;;;2.50;;
29030;SDS011;16122;50.236;11.734;2024-03-22T09:12:52;4.77;;;3.10;;
29030;SDS011;16122;50.236;11.734;2024-03-22T09:15:17;4.10;;;3.70;;
29030;SDS011;16122;50.236;11.734;2024-03-22T09:17:43;4.13;;;2.73;;
29030;SDS011;16122;50.236;11.734;2024-03-22T09:20:09;5.60;;;3.13;;
29030;SDS011;16122;50.236;11.734;2024-03-22T09:22:36;3.73;;;3.07;;
29030;SDS011;16122;50.236;11.734;2024-03-22T09:25:01;2.97;;;2.70;;
29030;SDS011;16122;50.236;11.734;2024-03-22T09:27:27;4.67;;;2.87;;
29030;SDS011;16122;50.236;11.734;2024-03-22T09:29:53;3.27;;;2.97;;
29030;SDS011;16122;50.236;11.734;2024-03-22T09:32:19;4.97;;;3.93;;
29030;SDS011;16122;50.236;11.734;2024-03-22T09:34:45;4.70;;;3.43;;
29030;SDS011;16122;50.236;11.734;2024-03-22T09:37:13;4.77;;;3.43;;
29030;SDS011;16122;50.236;11.734;2024-03-22T09:39:38;4.77;;;3.00;;
29030;SDS011;16122;50.236;11.734;2024-03-22T09:42:05;5.00;;;3.20;;
29030;SDS011;16122;50.236;11.734;2024-03-22T09:44:32;4.10;;;3.30;;
29030;SDS011;16122;50.236;11.734;2024-03-22T09:46:59;2.67;;;2.43;;
29030;SDS011;16122;50.236;11.734;2024-03-22T09:49:25;4.70;;;2.73;;
29030;SDS011;16122;50.236;11.734;2024-03-22T09:51:52;6.03;;;3.80;;
29030;SDS011;16122;50.236;11.734;2024-03-22T09:54:18;6.13;;;4.27;;
29030;SDS011;16122;50.236;11.734;2024-03-22T09:56:44;4.83;;;3.70;;
29030;SDS011;16122;50.236;11.734;2024-03-22T09:59:13;4.50;;;3.70;;
29030;SDS011;16122;50.236;11.734;2024-03-22T10:01:39;4.77;;;2.80;;
29030;SDS011;16122;50.236;11.734;2024-03-22T10:04:06;4.40;;;4.00;;
29030;SDS011;16122;50.236;11.734;2024-03-22T10:06:34;4.13;;;3.73;;
29030;SDS011;16122;50.236;11.734;2024-03-22T10:09:01;3.17;;;2.87;;
29030;SDS011;16122;50.236;11.734;2024-03-22T10:11:29;4.63;;;3.80;;
29030;SDS011;16122;50.236;11.734;2024-03-22T10:13:56;4.77;;;3.50;;
29030;SDS011;16122;50.236;11.734;2024-03-22T10:16:22;3.90;;;3.10;;
29030;SDS011;16122;50.236;11.734;2024-03-22T10:18:48;3.50;;;3.20;;
29030;SDS011;16122;50.236;11.734;2024-03-22T10:21:16;5.40;;;3.50;;
29030;SDS011;16122;50.236;11.734;2024-03-22T10:23:46;3.90;;;3.13;;
29030;SDS011;16122;50.236;11.734;2024-03-22T10:26:13;3.43;;;3.13;;
29030;SDS011;16122;50.236;11.734;2024-03-22T10:28:46;3.50;;;3.20;;
29030;SDS011;16122;50.236;11.734;2024-03-22T10:31:12;3.60;;;3.30;;
29030;SDS011;16122;50.236;11.734;2024-03-22T10:33:40;2.70;;;2.50;;
29030;SDS011;16122;50.236;11.734;2024-03-22T10:36:06;3.30;;;3.00;;
29030;SDS011;16122;50.236;11.734;2024-03-22T10:38:33;5.00;;;3.60;;
29030;SDS011;16122;50.236;11.734;2024-03-22T10:41:01;3.63;;;3.10;;
29030;SDS011;16122;50.236;11.734;2024-03-22T10:43:28;4.13;;;3.40;;
29030;SDS011;16122;50.236;11.734;2024-03-22T10:45:54;3.27;;;2.97;;
29030;SDS011;16122;50.236;11.734;2024-03-22T10:48:25;4.20;;;3.57;;
29030;SDS011;16122;50.236;11.734;2024-03-22T10:50:54;3.57;;;3.23;;
29030;SDS011;16122;50.236;11.734;2024-03-22T10:53:24;4.93;;;3.33;;
29030;SDS011;16122;50.236;11.734;2024-03-22T10:55:52;5.13;;;3.90;;
29030;SDS011;16122;50.236;11.734;2024-03-22T10:58:23;3.57;;;3.00;;
29030;SDS011;16122;50.236;11.734;2024-03-22T11:00:53;4.60;;;3.80;;
29030;SDS011;16122;50.236;11.734;2024-03-22T11:03:21;3.50;;;3.20;;
29030;SDS011;16122;50.236;11.734;2024-03-22T11:05:50;3.80;;;3.50;;
29030;SDS011;16122;50.236;11.734;2024-03-22T11:08:23;4.47;;;4.07;;
29030;SDS011;16122;50.236;11.734;2024-03-22T11:10:53;4.23;;;3.83;;
29030;SDS011;16122;50.236;11.734;2024-03-22T11:13:20;4.93;;;3.27;;
29030;SDS011;16122;50.236;11.734;2024-03-22T11:15:49;5.87;;;4.30;;
29030;SDS011;16122;50.236;11.734;2024-03-22T11:18:16;5.00;;;3.67;;
29030;SDS011;16122;50.236;11.734;2024-03-22T11:20:42;4.90;;;4.20;;
29030;SDS011;16122;50.236;11.734;2024-03-22T11:23:11;4.07;;;3.63;;
29030;SDS011;16122;50.236;11.734;2024-03-22T11:25:37;4.93;;;3.73;;
29030;SDS011;16122;50.236;11.734;2024-03-22T11:28:03;5.30;;;3.77;;
29030;SDS011;16122;50.236;11.734;2024-03-22T11:30:31;4.53;;;3.60;;
29030;SDS011;16122;50.236;11.734;2024-03-22T11:33:00;4.70;;;3.30;;
29030;SDS011;16122;50.236;11.734;2024-03-22T11:35:27;3.93;;;3.53;;
29030;SDS011;16122;50.236;11.734;2024-03-22T11:37:53;5.40;;;4.03;;
29030;SDS011;16122;50.236;11.734;2024-03-22T11:40:19;6.83;;;3.70;;
29030;SDS011;16122;50.236;11.734;2024-03-22T11:42:46;4.90;;;4.07;;
29030;SDS011;16122;50.236;11.734;2024-03-22T11:45:15;3.50;;;3.20;;
29030;SDS011;16122;50.236;11.734;2024-03-22T11:47:43;6.13;;;3.40;;
29030;SDS011;16122;50.236;11.734;2024-03-22T11:50:11;5.37;;;3.70;;
29030;SDS011;16122;50.236;11.734;2024-03-22T11:52:43;4.40;;;3.87;;
29030;SDS011;16122;50.236;11.734;2024-03-22T11:55:12;6.87;;;4.17;;
29030;SDS011;16122;50.236;11.734;2024-03-22T11:57:39;4.00;;;3.20;;
29030;SDS011;16122;50.236;11.734;2024-03-22T12:00:05;4.17;;;3.73;;
29030;SDS011;16122;50.236;11.734;2024-03-22T12:02:37;9.67;;;5.10;;
29030;SDS011;16122;50.236;11.734;2024-03-22T12:05:04;4.40;;;3.77;;
29030;SDS011;16122;50.236;11.734;2024-03-22T12:07:30;6.50;;;4.43;;
29030;SDS011;16122;50.236;11.734;2024-03-22T12:09:57;4.53;;;3.60;;
29030;SDS011;16122;50.236;11.734;2024-03-22T12:12:23;4.90;;;4.40;;
29030;SDS011;16122;50.236;11.734;2024-03-22T12:14:49;5.80;;;4.23;;
29030;SDS011;16122;50.236;11.734;2024-03-22T12:17:16;3.97;;;3.53;;
29030;SDS011;16122;50.236;11.734;2024-03-22T12:19:43;6.77;;;3.80;;
29030;SDS011;16122;50.236;11.734;2024-03-22T12:22:09;7.63;;;3.67;;
29030;SDS011;16122;50.236;11.734;2024-03-22T12:24:36;7.80;;;4.30;;
29030;SDS011;16122;50.236;11.734;2024-03-22T12:27:02;5.00;;;3.80;;
29030;SDS011;16122;50.236;11.734;2024-03-22T12:29:28;7.73;;;3.80;;
29030;SDS011;16122;50.236;11.734;2024-03-22T12:31:54;4.13;;;3.80;;
29030;SDS011;16122;50.236;11.734;2024-03-22T12:34:20;4.00;;;3.43;;
29030;SDS011;16122;50.236;11.734;2024-03-22T12:36:45;3.57;;;3.27;;
29030;SDS011;16122;50.236;11.734;2024-03-22T12:39:11;9.07;;;3.60;;
29030;SDS011;16122;50.236;11.734;2024-03-22T12:41:37;4.73;;;4.03;;
29030;SDS011;16122;50.236;11.734;2024-03-22T12:44:03;4.10;;;3.70;;
29030;SDS011;16122;50.236;11.734;2024-03-22T12:46:29;3.80;;;3.37;;
29030;SDS011;16122;50.236;11.734;2024-03-22T12:48:55;4.17;;;3.43;;
29030;SDS011;16122;50.236;11.734;2024-03-22T12:51:20;3.87;;;3.57;;
29030;SDS011;16122;50.236;11.734;2024-03-22T12:53:47;4.03;;;3.63;;
29030;SDS011;16122;50.236;11.734;2024-03-22T12:56:13;5.70;;;3.40;;
29030;SDS011;16122;50.236;11.734;2024-03-22T12:58:38;5.70;;;3.80;;
29030;SDS011;16122;50.236;11.734;2024-03-22T13:01:04;4.13;;;3.40;;
29030;SDS011;16122;50.236;11.734;2024-03-22T13:03:32;4.30;;;2.87;;
29030;SDS011;16122;50.236;11.734;2024-03-22T13:05:58;4.87;;;3.27;;
29030;SDS011;16122;50.236;11.734;2024-03-22T13:08:24;3.00;;;2.70;;
29030;SDS011;16122;50.236;11.734;2024-03-22T13:10:50;3.67;;;3.20;;
29030;SDS011;16122;50.236;11.734;2024-03-22T13:13:17;7.63;;;3.73;;
29030;SDS011;16122;50.236;11.734;2024-03-22T13:15:43;4.20;;;3.40;;
29030;SDS011;16122;50.236;11.734;2024-03-22T13:18:09;4.20;;;3.00;;
29030;SDS011;16122;50.236;11.734;2024-03-22T13:20:35;3.00;;;2.67;;
29030;SDS011;16122;50.236;11.734;2024-03-22T13:23:01;3.00;;;2.80;;
29030;SDS011;16122;50.236;11.734;2024-03-22T13:25:28;3.47;;;3.07;;
29030;SDS011;16122;50.236;11.734;2024-03-22T13:27:53;3.17;;;2.87;;
29030;SDS011;16122;50.236;11.734;2024-03-22T13:30:19;3.70;;;3.40;;
29030;SDS011;16122;50.236;11.734;2024-03-22T13:32:45;3.17;;;2.87;;
29030;SDS011;16122;50.236;11.734;2024-03-22T13:35:11;3.30;;;3.00;;
29030;SDS011;16122;50.236;11.734;2024-03-22T13:37:37;7.00;;;3.50;;
29030;SDS011;16122;50.236;11.734;2024-03-22T13:40:03;2.87;;;2.67;;
29030;SDS011;16122;50.236;11.734;2024-03-22T13:42:29;3.20;;;2.90;;
29030;SDS011;16122;50.236;11.734;2024-03-22T13:44:58;3.13;;;2.50;;
29030;SDS011;16122;50.236;11.734;2024-03-22T13:47:24;3.30;;;3.00;;
29030;SDS011;16122;50.236;11.734;2024-03-22T13:49:52;3.63;;;3.10;;
29030;SDS011;16122;50.236;11.734;2024-03-22T13:52:19;3.43;;;3.07;;
29030;SDS011;16122;50.236;11.734;2024-03-22T13:54:46;5.87;;;3.40;;
29030;SDS011;16122;50.236;11.734;2024-03-22T13:57:12;4.23;;;2.90;;
29030;SDS011;16122;50.236;11.734;2024-03-22T13:59:38;5.33;;;2.80;;
29030;SDS011;16122;50.236;11.734;2024-03-22T14:02:05;2.80;;;2.60;;
29030;SDS011;16122;50.236;11.734;2024-03-22T14:04:32;3.30;;;3.00;;
29030;SDS011;16122;50.236;11.734;2024-03-22T14:06:59;5.20;;;3.00;;
29030;SDS011;16122;50.236;11.734;2024-03-22T14:09:31;3.00;;;2.73;;
29030;SDS011;16122;50.236;11.734;2024-03-22T14:11:57;3.20;;;2.80;;
29030;SDS011;16122;50.236;11.734;2024-03-22T14:14:25;4.07;;;3.30;;
29030;SDS011;16122;50.236;11.734;2024-03-22T14:16:54;3.50;;;2.90;;
29030;SDS011;16122;50.236;11.734;2024-03-22T14:19:20;4.03;;;2.77;;
29030;SDS011;16122;50.236;11.734;2024-03-22T14:21:46;3.77;;;3.47;;
29030;SDS011;16122;50.236;11.734;2024-03-22T14:24:12;3.53;;;3.23;;
29030;SDS011;16122;50.236;11.734;2024-03-22T14:26:38;3.30;;;3.00;;
29030;SDS011;16122;50.236;11.734;2024-03-22T14:29:08;3.17;;;2.97;;
29030;SDS011;16122;50.236;11.734;2024-03-22T14:31:35;4.40;;;2.73;;
29030;SDS011;16122;50.236;11.734;2024-03-22T14:34:01;3.50;;;3.20;;
29030;SDS011;16122;50.236;11.734;2024-03-22T14:36:27;4.00;;;2.87;;
29030;SDS011;16122;50.236;11.734;2024-03-22T14:38:53;2.80;;;2.60;;
29030;SDS011;16122;50.236;11.734;2024-03-22T14:41:19;2.50;;;2.23;;
29030;SDS011;16122;50.236;11.734;2024-03-22T14:43:45;3.50;;;3.20;;
29030;SDS011;16122;50.236;11.734;2024-03-22T14:46:10;4.27;;;3.10;;
29030;SDS011;16122;50.236;11.734;2024-03-22T14:48:36;3.47;;;3.17;;
29030;SDS011;16122;50.236;11.734;2024-03-22T14:51:02;3.50;;;3.20;;
29030;SDS011;16122;50.236;11.734;2024-03-22T14:53:28;8.00;;;3.30;;
29030;SDS011;16122;50.236;11.734;2024-03-22T14:55:59;3.20;;;2.83;;
29030;SDS011;16122;50.236;11.734;2024-03-22T14:58:29;3.47;;;3.10;;
29030;SDS011;16122;50.236;11.734;2024-03-22T15:01:02;3.60;;;3.30;;
29030;SDS011;16122;50.236;11.734;2024-03-22T15:03:30;3.50;;;2.87;;
29030;SDS011;16122;50.236;11.734;2024-03-22T15:05:57;2.93;;;2.63;;
29030;SDS011;16122;50.236;11.734;2024-03-22T15:08:27;4.33;;;3.23;;
29030;SDS011;16122;50.236;11.734;2024-03-22T15:10:53;11.10;;;3.20;;
29030;SDS011;16122;50.236;11.734;2024-03-22T15:13:19;4.70;;;3.10;;
29030;SDS011;16122;50.236;11.734;2024-03-22T15:15:52;4.10;;;2.97;;
29030;SDS011;16122;50.236;11.734;2024-03-22T15:18:19;5.60;;;2.67;;